createdAt,value
2023-12-18T00:00:49.741Z,14.17
2023-12-18T00:03:17.661Z,15.40
2023-12-18T00:05:45.243Z,15.93
2023-12-18T00:08:12.673Z,15.60
2023-12-18T00:10:40.301Z,16.73
2023-12-18T00:13:07.500Z,17.93
2023-12-18T00:15:35.036Z,18.23
2023-12-18T00:18:02.452Z,16.83
2023-12-18T00:20:29.573Z,15.37
2023-12-18T00:22:56.583Z,16.87
2023-12-18T00:25:23.857Z,14.93
2023-12-18T00:27:51.900Z,19.23
2023-12-18T00:30:19.771Z,18.00
2023-12-18T00:32:46.904Z,17.50
2023-12-18T00:35:14.148Z,16.50
2023-12-18T00:37:41.646Z,17.73
2023-12-18T00:40:09.868Z,14.67
2023-12-18T00:42:38.148Z,16.33
2023-12-18T00:45:07.069Z,15.87
2023-12-18T00:47:34.523Z,17.70
2023-12-18T00:50:03.865Z,17.70
2023-12-18T00:52:32.456Z,18.07
2023-12-18T00:54:59.489Z,20.53
2023-12-18T00:57:26.795Z,18.30
2023-12-18T00:59:54.199Z,18.60
2023-12-18T01:02:21.440Z,19.57
2023-12-18T01:04:48.547Z,22.50
2023-12-18T01:07:16.076Z,21.70
2023-12-18T01:09:43.547Z,18.87
2023-12-18T01:12:11.008Z,22.20
2023-12-18T01:14:38.345Z,22.10
2023-12-18T01:17:05.714Z,22.23
2023-12-18T01:19:33.021Z,24.10
2023-12-18T01:22:00.389Z,17.77
2023-12-18T01:24:27.986Z,23.33
2023-12-18T01:26:55.442Z,22.80
2023-12-18T01:29:22.818Z,20.80
2023-12-18T01:31:49.868Z,23.10
2023-12-18T01:34:17.067Z,24.37
2023-12-18T01:36:44.326Z,23.93
2023-12-18T01:39:11.402Z,26.40
2023-12-18T01:41:38.528Z,23.43
2023-12-18T01:44:05.834Z,23.07
2023-12-18T01:46:36.647Z,23.07
2023-12-18T01:49:04.082Z,21.10
2023-12-18T01:51:31.683Z,25.77
2023-12-18T01:54:00.299Z,30.13
2023-12-18T01:56:31.985Z,25.03
2023-12-18T01:59:00.641Z,27.07
2023-12-18T02:01:29.416Z,26.87
2023-12-18T02:03:57.544Z,24.37
2023-12-18T02:06:25.372Z,22.40
2023-12-18T02:08:53.183Z,24.57
2023-12-18T02:11:21.131Z,27.10
2023-12-18T02:13:48.584Z,24.33
2023-12-18T02:16:15.851Z,25.00
2023-12-18T02:18:47.493Z,25.60
2023-12-18T02:21:23.932Z,28.30
2023-12-18T02:23:52.146Z,25.03
2023-12-18T02:26:20.297Z,32.00
2023-12-18T02:28:47.810Z,27.07
2023-12-18T02:31:16.398Z,31.10
2023-12-18T02:33:49.848Z,28.17
2023-12-18T02:36:17.912Z,28.87
2023-12-18T02:38:45.112Z,27.47
2023-12-18T02:41:12.173Z,31.57
2023-12-18T02:43:39.276Z,25.37
2023-12-18T02:46:06.344Z,28.83
2023-12-18T02:48:33.643Z,31.43
2023-12-18T02:51:01.192Z,26.77
2023-12-18T02:53:28.559Z,32.40
2023-12-18T02:55:55.656Z,28.73
2023-12-18T02:58:23.892Z,28.57
2023-12-18T03:00:51.915Z,30.73
2023-12-18T03:03:20.756Z,32.70
2023-12-18T03:05:48.176Z,32.00
2023-12-18T03:08:15.423Z,28.50
2023-12-18T03:10:42.431Z,37.63
2023-12-18T03:13:09.818Z,32.53
2023-12-18T03:15:37.003Z,32.83
2023-12-18T03:18:04.449Z,31.33
2023-12-18T03:20:31.512Z,28.77
2023-12-18T03:22:58.628Z,31.23
2023-12-18T03:25:25.669Z,31.07
2023-12-18T03:27:52.808Z,30.63
2023-12-18T03:30:20.074Z,30.83
2023-12-18T03:32:47.336Z,32.30
2023-12-18T03:35:14.586Z,29.90
2023-12-18T03:37:41.728Z,35.73
2023-12-18T03:40:10.032Z,30.90
2023-12-18T03:42:39.636Z,36.03
2023-12-18T03:45:07.625Z,31.83
2023-12-18T03:47:34.717Z,34.60
2023-12-18T03:50:01.830Z,33.97
2023-12-18T03:52:28.956Z,37.43
2023-12-18T03:54:56.090Z,34.00
2023-12-18T03:57:23.230Z,31.70
2023-12-18T03:59:50.355Z,33.03
2023-12-18T04:02:17.359Z,29.40
2023-12-18T04:04:46.048Z,36.23
2023-12-18T04:07:13.345Z,34.37
2023-12-18T04:09:40.988Z,35.80
2023-12-18T04:12:08.443Z,31.83
2023-12-18T04:14:35.556Z,35.87
2023-12-18T04:17:02.589Z,32.73
2023-12-18T04:19:30.039Z,34.30
2023-12-18T04:21:57.217Z,34.97
2023-12-18T04:24:24.696Z,37.97
2023-12-18T04:26:51.873Z,37.23
2023-12-18T04:29:19.228Z,37.13
2023-12-18T04:31:46.696Z,33.83
2023-12-18T04:34:14.070Z,35.93
2023-12-18T04:36:41.454Z,37.03
2023-12-18T04:39:08.726Z,43.67
2023-12-18T04:41:35.751Z,34.40
2023-12-18T04:44:02.833Z,37.40
2023-12-18T04:46:36.553Z,35.13
2023-12-18T04:49:05.123Z,37.07
2023-12-18T04:51:32.794Z,39.60
2023-12-18T04:54:01.232Z,34.77
2023-12-18T04:56:28.646Z,40.80
2023-12-18T04:58:55.742Z,39.00
2023-12-18T05:01:22.918Z,36.33
2023-12-18T05:03:50.414Z,34.47
2023-12-18T05:06:23.297Z,37.50
2023-12-18T05:08:51.524Z,40.53
2023-12-18T05:11:23.442Z,35.53
2023-12-18T05:13:50.929Z,36.90
2023-12-18T05:16:21.924Z,43.40
2023-12-18T05:18:50.249Z,34.37
2023-12-18T05:21:17.598Z,33.07
2023-12-18T05:23:48.989Z,38.60
2023-12-18T05:26:16.500Z,37.50
2023-12-18T05:28:43.813Z,36.83
2023-12-18T05:31:12.328Z,36.67
2023-12-18T05:33:39.718Z,32.97
2023-12-18T05:36:08.545Z,31.47
2023-12-18T05:38:35.656Z,41.50
2023-12-18T05:41:03.105Z,33.63
2023-12-18T05:43:30.281Z,39.00
2023-12-18T05:45:57.548Z,35.53
2023-12-18T05:48:24.709Z,37.47
2023-12-18T05:50:51.880Z,39.57
2023-12-18T05:53:19.250Z,36.17
2023-12-18T05:55:46.709Z,33.70
2023-12-18T05:58:13.871Z,38.70
2023-12-18T06:00:41.137Z,38.40
2023-12-18T06:03:08.373Z,33.50
2023-12-18T06:05:35.536Z,42.50
2023-12-18T06:08:02.811Z,39.60
2023-12-18T06:10:30.129Z,38.10
2023-12-18T06:12:57.636Z,37.63
2023-12-18T06:15:24.956Z,36.83
2023-12-18T06:17:52.896Z,38.70
2023-12-18T06:20:20.266Z,40.37
2023-12-18T06:22:47.523Z,36.40
2023-12-18T06:25:14.632Z,37.07
2023-12-18T06:27:44.864Z,43.13
2023-12-18T06:30:12.821Z,41.93
2023-12-18T06:32:40.388Z,44.60
2023-12-18T06:35:08.614Z,37.50
2023-12-18T06:37:35.741Z,41.90
2023-12-18T06:40:03.605Z,48.20
2023-12-18T06:42:30.985Z,45.93
2023-12-18T06:44:58.210Z,42.23
2023-12-18T06:47:25.573Z,42.77
2023-12-18T06:49:52.672Z,43.60
2023-12-18T06:52:19.958Z,41.73
2023-12-18T06:54:47.419Z,49.33
2023-12-18T06:57:14.732Z,47.27
2023-12-18T06:59:41.831Z,46.93
2023-12-18T07:02:09.104Z,46.93
2023-12-18T07:04:36.275Z,43.07
2023-12-18T07:07:03.554Z,49.20
2023-12-18T07:09:30.989Z,42.03
2023-12-18T07:11:58.317Z,42.87
2023-12-18T07:14:25.941Z,49.67
2023-12-18T07:16:56.497Z,47.40
2023-12-18T07:19:24.247Z,48.10
2023-12-18T07:21:51.386Z,45.67
2023-12-18T07:24:18.573Z,50.27
2023-12-18T07:26:45.960Z,44.13
2023-12-18T07:29:13.023Z,47.30
2023-12-18T07:31:40.480Z,44.00
2023-12-18T07:34:08.165Z,47.97
2023-12-18T07:36:37.210Z,47.30
2023-12-18T07:39:04.450Z,45.47
2023-12-18T07:41:32.289Z,50.27
2023-12-18T07:43:59.553Z,47.53
2023-12-18T07:46:28.252Z,42.00
2023-12-18T07:48:56.087Z,45.40
2023-12-18T07:51:23.664Z,44.13
2023-12-18T07:53:51.340Z,44.07
2023-12-18T07:56:18.860Z,44.07
2023-12-18T07:58:46.570Z,40.53
2023-12-18T08:01:16.869Z,43.57
2023-12-18T08:03:45.380Z,41.77
2023-12-18T08:06:12.569Z,48.40
2023-12-18T08:08:39.677Z,43.93
2023-12-18T08:11:06.830Z,49.20
2023-12-18T08:13:39.662Z,47.43
2023-12-18T08:16:08.296Z,47.50
2023-12-18T08:18:35.737Z,52.30
2023-12-18T08:21:03.083Z,41.30
2023-12-18T08:23:30.267Z,43.47
2023-12-18T08:25:57.922Z,42.27
2023-12-18T08:28:25.298Z,46.17
2023-12-18T08:30:52.504Z,45.97
2023-12-18T08:33:19.801Z,44.17
2023-12-18T08:35:47.105Z,44.83
2023-12-18T08:38:14.932Z,46.83
2023-12-18T08:40:42.380Z,48.13
2023-12-18T08:43:09.760Z,45.43
2023-12-18T08:45:38.067Z,53.10
2023-12-18T08:48:06.033Z,50.60
2023-12-18T08:50:33.164Z,51.40
2023-12-18T08:53:01.127Z,40.27
2023-12-18T08:55:28.317Z,55.13
2023-12-18T08:57:55.514Z,39.70
2023-12-18T09:00:23.487Z,39.90
2023-12-18T09:02:50.573Z,44.70
2023-12-18T09:05:17.830Z,42.97
2023-12-18T09:07:44.806Z,41.27
2023-12-18T09:10:12.875Z,36.93
2023-12-18T09:12:40.505Z,39.27
2023-12-18T09:15:08.479Z,42.80
2023-12-18T09:17:36.245Z,38.40
2023-12-18T09:20:04.240Z,37.37
2023-12-18T09:22:31.296Z,34.87
2023-12-18T09:24:58.432Z,38.90
2023-12-18T09:27:25.599Z,38.97
2023-12-18T09:29:52.730Z,38.90
2023-12-18T09:32:19.966Z,38.27
2023-12-18T09:34:47.800Z,39.30
2023-12-18T09:37:15.127Z,39.33
2023-12-18T09:39:43.115Z,33.23
2023-12-18T09:42:16.595Z,35.87
2023-12-18T09:44:48.131Z,39.17
2023-12-18T09:47:15.487Z,38.60
2023-12-18T09:49:42.736Z,41.67
2023-12-18T09:52:12.337Z,33.97
2023-12-18T09:54:43.799Z,40.20
2023-12-18T09:57:13.805Z,37.03
2023-12-18T09:59:41.223Z,42.27
2023-12-18T10:02:11.094Z,42.30
2023-12-18T10:04:42.869Z,38.70
2023-12-18T10:07:09.936Z,41.53
2023-12-18T10:09:37.618Z,34.90
2023-12-18T10:12:05.333Z,33.90
2023-12-18T10:14:32.527Z,37.33
2023-12-18T10:17:00.452Z,39.73
2023-12-18T10:19:30.911Z,42.30
2023-12-18T10:21:59.059Z,38.53
2023-12-18T10:24:27.087Z,38.57
2023-12-18T10:26:54.248Z,37.13
2023-12-18T10:29:21.435Z,39.57
2023-12-18T10:31:49.003Z,38.03
2023-12-18T10:34:19.117Z,37.57
2023-12-18T10:36:47.635Z,36.50
2023-12-18T10:39:20.179Z,37.00
2023-12-18T10:41:54.819Z,31.03
2023-12-18T10:44:24.500Z,36.17
2023-12-18T10:46:52.031Z,33.87
2023-12-18T10:49:21.654Z,34.30
2023-12-18T10:51:51.273Z,36.37
2023-12-18T10:54:19.290Z,31.53
2023-12-18T10:56:49.020Z,32.57
2023-12-18T10:59:19.716Z,37.40
2023-12-18T11:01:47.672Z,33.27
2023-12-18T11:04:15.071Z,36.53
2023-12-18T11:06:42.867Z,38.50
2023-12-18T11:09:10.094Z,38.23
2023-12-18T11:11:38.187Z,39.70
2023-12-18T11:14:29.074Z,39.57
2023-12-18T11:17:24.122Z,33.23
2023-12-18T11:20:24.226Z,31.33
2023-12-18T11:22:56.835Z,30.33
2023-12-18T11:25:50.477Z,33.27
2023-12-18T11:28:18.349Z,30.97
2023-12-18T11:30:46.033Z,31.07
2023-12-18T11:33:16.328Z,34.07
2023-12-18T11:35:50.062Z,26.47
2023-12-18T11:38:20.323Z,33.07
2023-12-18T11:40:51.627Z,31.37
2023-12-18T11:43:40.448Z,36.13
2023-12-18T11:46:16.946Z,35.40
2023-12-18T11:48:47.671Z,30.83
2023-12-18T11:51:17.029Z,33.50
2023-12-18T11:53:44.243Z,30.50
2023-12-18T11:56:13.237Z,29.97
2023-12-18T11:58:43.739Z,32.40
2023-12-18T12:01:11.531Z,27.03
2023-12-18T12:03:41.537Z,33.23
2023-12-18T12:06:09.858Z,30.47
2023-12-18T12:08:51.926Z,24.53
2023-12-18T12:11:20.393Z,29.67
2023-12-18T12:13:49.179Z,31.23
2023-12-18T12:16:19.649Z,28.30
2023-12-18T12:18:51.680Z,29.17
2023-12-18T12:21:20.074Z,27.77
2023-12-18T12:23:49.540Z,27.93
2023-12-18T12:26:24.357Z,25.23
2023-12-18T12:28:51.463Z,32.13
2023-12-18T12:31:20.076Z,32.80
2023-12-18T12:33:50.179Z,30.07
2023-12-18T12:36:22.376Z,29.87
2023-12-18T12:38:49.943Z,26.30
2023-12-18T12:41:17.968Z,28.13
2023-12-18T12:43:46.128Z,25.70
2023-12-18T12:46:17.250Z,31.77
2023-12-18T12:48:49.638Z,27.80
2023-12-18T12:51:19.813Z,29.40
2023-12-18T12:53:47.450Z,29.13
2023-12-18T12:56:14.907Z,28.10
2023-12-18T12:58:41.941Z,27.43
2023-12-18T13:01:09.379Z,27.47
2023-12-18T13:03:37.315Z,29.47
2023-12-18T13:06:05.171Z,27.30
2023-12-18T13:08:34.508Z,25.63
2023-12-18T13:11:05.915Z,27.37
2023-12-18T13:13:33.507Z,29.13
2023-12-18T13:16:00.920Z,34.63
2023-12-18T13:18:28.517Z,27.23
2023-12-18T13:20:55.621Z,30.60
2023-12-18T13:23:23.056Z,35.00
2023-12-18T13:25:51.370Z,28.13
2023-12-18T13:28:18.842Z,30.00
2023-12-18T13:30:46.069Z,28.43
2023-12-18T13:33:13.574Z,31.43
2023-12-18T13:35:40.920Z,26.90
2023-12-18T13:38:08.107Z,26.87
2023-12-18T13:40:35.272Z,25.50
2023-12-18T13:43:03.506Z,23.77
2023-12-18T13:45:30.743Z,22.80
2023-12-18T13:47:59.313Z,22.30
2023-12-18T13:50:27.719Z,25.27
2023-12-18T13:52:56.254Z,22.60
2023-12-18T13:55:23.540Z,25.03
2023-12-18T13:57:50.721Z,22.67
2023-12-18T14:00:20.863Z,27.63
2023-12-18T14:02:49.251Z,24.00
2023-12-18T14:05:16.690Z,24.37
2023-12-18T14:07:44.298Z,22.03
2023-12-18T14:10:11.634Z,24.10
2023-12-18T14:12:38.846Z,27.07
2023-12-18T14:15:07.236Z,24.90
2023-12-18T14:17:34.712Z,22.47
2023-12-18T14:20:05.982Z,22.37
2023-12-18T14:22:34.387Z,24.50
2023-12-18T14:25:03.685Z,24.50
2023-12-18T14:27:33.213Z,23.93
2023-12-18T14:30:01.213Z,26.33
2023-12-18T14:32:28.832Z,26.83
2023-12-18T14:34:56.217Z,34.63
2023-12-18T14:37:23.571Z,30.77
2023-12-18T14:39:50.942Z,28.20
2023-12-18T14:42:18.417Z,25.53
2023-12-18T14:44:45.643Z,26.67
2023-12-18T14:47:13.208Z,27.67
2023-12-18T14:49:40.741Z,30.17
2023-12-18T14:52:08.074Z,26.10
2023-12-18T14:54:35.471Z,26.13
2023-12-18T14:57:02.667Z,27.90
2023-12-18T14:59:30.059Z,32.73
2023-12-18T15:02:00.234Z,33.33
2023-12-18T15:04:30.500Z,34.80
2023-12-18T15:06:59.735Z,23.43
2023-12-18T15:09:29.188Z,29.53
2023-12-18T15:11:57.039Z,29.40
2023-12-18T15:14:24.568Z,26.07
2023-12-18T15:16:51.803Z,27.87
2023-12-18T15:19:19.406Z,25.60
2023-12-18T15:21:46.736Z,28.10
2023-12-18T15:24:14.137Z,27.20
2023-12-18T15:26:41.760Z,26.60
2023-12-18T15:29:08.798Z,28.63
2023-12-18T15:31:36.346Z,25.50
2023-12-18T15:34:07.480Z,22.70
2023-12-18T15:36:35.109Z,24.17
2023-12-18T15:39:03.008Z,23.30
2023-12-18T15:41:33.274Z,25.20
2023-12-18T15:44:00.610Z,24.03
2023-12-18T15:46:27.819Z,22.57
2023-12-18T15:48:55.198Z,23.43
2023-12-18T15:51:22.522Z,26.83
2023-12-18T15:53:49.846Z,24.27
2023-12-18T15:56:17.085Z,26.40
2023-12-18T15:58:44.951Z,25.83
2023-12-18T16:01:13.537Z,25.10
2023-12-18T16:03:41.904Z,27.03
2023-12-18T16:06:09.234Z,26.67
2023-12-18T16:08:36.748Z,25.57
2023-12-18T16:11:04.170Z,23.20
2023-12-18T16:13:31.290Z,25.77
2023-12-18T16:15:58.669Z,30.70
2023-12-18T16:18:26.055Z,24.13
2023-12-18T16:20:53.486Z,24.90
2023-12-18T16:23:20.750Z,24.87
2023-12-18T16:25:48.233Z,23.10
2023-12-18T16:28:15.541Z,27.20
2023-12-18T16:30:52.980Z,23.90
2023-12-18T16:33:23.971Z,26.70
2023-12-18T16:35:51.293Z,23.07
2023-12-18T16:38:18.885Z,25.67
2023-12-18T16:40:50.518Z,22.33
2023-12-18T16:43:17.783Z,26.63
2023-12-18T16:45:44.990Z,22.63
2023-12-18T16:48:12.462Z,24.63
2023-12-18T16:50:39.575Z,31.40
2023-12-18T16:53:06.786Z,36.67
2023-12-18T16:55:33.957Z,27.77
2023-12-18T16:58:02.475Z,27.27
2023-12-18T17:00:33.194Z,30.13
2023-12-18T17:03:01.249Z,28.70
2023-12-18T17:05:28.861Z,29.97
2023-12-18T17:07:56.107Z,26.67
2023-12-18T17:10:23.177Z,26.43
2023-12-18T17:12:50.567Z,26.50
2023-12-18T17:15:17.932Z,26.27
2023-12-18T17:17:45.181Z,30.80
2023-12-18T17:20:12.650Z,26.20
2023-12-18T17:22:40.884Z,29.70
2023-12-18T17:25:08.482Z,30.00
2023-12-18T17:27:35.717Z,25.70
2023-12-18T17:30:03.043Z,28.20
2023-12-18T17:32:30.637Z,27.33
2023-12-18T17:35:00.193Z,31.53
2023-12-18T17:37:27.953Z,30.57
2023-12-18T17:39:55.894Z,33.17
2023-12-18T17:42:24.402Z,31.60
2023-12-18T17:44:51.626Z,30.20
2023-12-18T17:47:18.658Z,35.17
2023-12-18T17:49:46.141Z,33.93
2023-12-18T17:52:13.460Z,29.93
2023-12-18T17:54:40.694Z,33.10
2023-12-18T17:57:07.814Z,34.03
2023-12-18T17:59:35.114Z,32.30
2023-12-18T18:02:02.355Z,35.00
2023-12-18T18:04:29.814Z,32.97
2023-12-18T18:06:57.143Z,33.23
2023-12-18T18:09:24.258Z,35.00
2023-12-18T18:11:51.500Z,37.40
2023-12-18T18:14:18.783Z,37.53
2023-12-18T18:16:46.009Z,32.80
2023-12-18T18:19:15.759Z,35.93
2023-12-18T18:21:43.047Z,31.10
2023-12-18T18:24:10.206Z,30.00
2023-12-18T18:26:37.590Z,32.50
2023-12-18T18:29:05.272Z,32.13
2023-12-18T18:31:33.097Z,31.13
2023-12-18T18:34:04.973Z,34.17
2023-12-18T18:36:34.257Z,31.77
2023-12-18T18:39:03.352Z,33.57
2023-12-18T18:41:31.751Z,28.83
2023-12-18T18:43:59.401Z,33.63
2023-12-18T18:46:27.365Z,32.40
2023-12-18T18:48:54.981Z,32.03
2023-12-18T18:51:22.360Z,28.43
2023-12-18T18:53:49.540Z,30.87
2023-12-18T18:56:16.790Z,30.63
2023-12-18T18:58:44.899Z,31.10
2023-12-18T19:01:12.172Z,30.10
2023-12-18T19:03:41.935Z,32.20
2023-12-18T19:06:09.352Z,31.83
2023-12-18T19:08:36.600Z,27.17
2023-12-18T19:11:04.225Z,25.00
2023-12-18T19:13:31.342Z,30.70
2023-12-18T19:15:58.582Z,27.50
2023-12-18T19:18:26.427Z,30.87
2023-12-18T19:20:54.649Z,32.83
2023-12-18T19:23:22.501Z,35.90
2023-12-18T19:25:49.749Z,33.50
2023-12-18T19:28:17.405Z,33.20
2023-12-18T19:30:45.167Z,26.97
2023-12-18T19:33:12.775Z,32.27
2023-12-18T19:35:43.572Z,34.27
2023-12-18T19:38:10.965Z,27.43
2023-12-18T19:40:38.122Z,31.47
2023-12-18T19:43:07.271Z,27.10
2023-12-18T19:45:34.542Z,32.00
2023-12-18T19:48:01.874Z,28.07
2023-12-18T19:50:29.603Z,29.57
2023-12-18T19:52:56.850Z,30.60
2023-12-18T19:55:23.976Z,29.30
2023-12-18T19:57:51.108Z,30.67
2023-12-18T20:00:18.948Z,29.07
2023-12-18T20:02:46.574Z,32.37
2023-12-18T20:05:13.750Z,31.27
2023-12-18T20:07:41.066Z,32.00
2023-12-18T20:10:11.645Z,35.17
2023-12-18T20:12:39.179Z,30.90
2023-12-18T20:15:07.423Z,33.10
2023-12-18T20:17:35.353Z,29.50
2023-12-18T20:20:02.607Z,31.23
2023-12-18T20:22:31.375Z,34.47
2023-12-18T20:24:58.938Z,28.60
2023-12-18T20:27:28.757Z,36.20
2023-12-18T20:29:56.203Z,35.43
2023-12-18T20:32:23.733Z,31.97
2023-12-18T20:34:51.502Z,34.90
2023-12-18T20:37:18.720Z,37.30
2023-12-18T20:39:45.877Z,31.83
2023-12-18T20:42:14.084Z,37.20
2023-12-18T20:44:41.190Z,33.37
2023-12-18T20:47:08.284Z,34.97
2023-12-18T20:49:35.862Z,37.03
2023-12-18T20:52:03.469Z,39.70
2023-12-18T20:54:30.572Z,34.17
2023-12-18T20:56:58.015Z,41.13
2023-12-18T20:59:25.520Z,34.43
2023-12-18T21:01:52.676Z,36.23
2023-12-18T21:04:20.214Z,40.10
2023-12-18T21:06:48.251Z,36.00
2023-12-18T21:09:16.007Z,31.47
2023-12-18T21:11:43.373Z,35.33
2023-12-18T21:14:19.656Z,33.00
2023-12-18T21:16:53.135Z,34.90
2023-12-18T21:19:20.419Z,38.97
2023-12-18T21:21:52.017Z,35.73
2023-12-18T21:24:19.968Z,36.70
2023-12-18T21:26:47.413Z,37.37
2023-12-18T21:29:14.962Z,34.63
2023-12-18T21:31:42.310Z,34.50
2023-12-18T21:34:10.014Z,37.67
2023-12-18T21:36:39.232Z,35.57
2023-12-18T21:39:10.884Z,32.80
2023-12-18T21:41:39.326Z,33.70
2023-12-18T21:44:06.542Z,37.43
2023-12-18T21:46:33.960Z,35.03
2023-12-18T21:49:01.537Z,35.20
2023-12-18T21:51:34.994Z,30.73
2023-12-18T21:54:05.579Z,37.43
2023-12-18T21:56:32.691Z,38.20
2023-12-18T21:59:00.299Z,34.87
2023-12-18T22:01:27.517Z,36.27
2023-12-18T22:03:54.910Z,30.63
2023-12-18T22:06:23.635Z,36.27
2023-12-18T22:08:51.509Z,37.07
2023-12-18T22:11:18.809Z,31.17
2023-12-18T22:13:46.229Z,31.70
2023-12-18T22:16:15.757Z,35.00
2023-12-18T22:18:43.911Z,36.00
2023-12-18T22:21:12.125Z,36.20
2023-12-18T22:23:44.670Z,32.47
2023-12-18T22:26:13.759Z,32.93
2023-12-18T22:28:41.861Z,34.93
2023-12-18T22:31:10.545Z,32.57
2023-12-18T22:36:08.069Z,36.57
2023-12-18T22:38:35.212Z,37.60
2023-12-18T22:41:02.922Z,35.50
2023-12-18T22:43:30.219Z,32.00
2023-12-18T22:45:57.533Z,32.93
2023-12-18T22:48:28.047Z,34.27
2023-12-18T22:50:55.365Z,38.83
2023-12-18T22:53:23.614Z,38.37
2023-12-18T22:55:53.874Z,36.73
2023-12-18T22:58:22.501Z,33.43
2023-12-18T23:00:50.521Z,38.50
2023-12-18T23:03:18.427Z,33.17
2023-12-18T23:05:45.634Z,38.00
2023-12-18T23:08:13.129Z,35.40
2023-12-18T23:10:41.833Z,42.37
2023-12-18T23:13:09.476Z,37.13
2023-12-18T23:15:36.718Z,35.77
2023-12-18T23:18:04.593Z,43.00
2023-12-18T23:20:33.258Z,37.53
2023-12-18T23:23:00.679Z,32.87
2023-12-18T23:25:27.825Z,36.83
2023-12-18T23:27:55.857Z,41.90
2023-12-18T23:30:23.450Z,40.83
2023-12-18T23:32:52.029Z,36.60
2023-12-18T23:35:20.105Z,41.10
2023-12-18T23:37:47.739Z,37.87
2023-12-18T23:40:15.133Z,37.53
2023-12-18T23:42:42.750Z,36.27
2023-12-18T23:45:11.286Z,33.77
2023-12-18T23:47:38.876Z,42.10
2023-12-18T23:50:07.315Z,38.03
2023-12-18T23:52:34.628Z,39.13
2023-12-18T23:55:01.795Z,38.33
2023-12-18T23:57:29.048Z,39.13
2023-12-18T23:59:56.453Z,44.97
